sensor_id;sensor_type;location;lat;lon;timestamp;pressure;altitude;pressure_sealevel;temperature;humidity
69971;BME280;57301;50.328;8.542;2023-02-22T00:00:43;98472.31;;;1.63;90.63
69971;BME280;57301;50.328;8.542;2023-02-22T00:03:14;98465.09;;;1.66;90.38
69971;BME280;57301;50.328;8.542;2023-02-22T00:05:43;98463.19;;;1.68;90.33
69971;BME280;57301;50.328;8.542;2023-02-22T00:08:13;98465.25;;;1.63;90.25
69971;BME280;57301;50.328;8.542;2023-02-22T00:10:40;98461.91;;;1.61;90.34
69971;BME280;57301;50.328;8.542;2023-02-22T00:13:09;98463.47;;;1.64;90.10
69971;BME280;57301;50.328;8.542;2023-02-22T00:15:36;98470.81;;;1.58;90.45
69971;BME280;57301;50.328;8.542;2023-02-22T00:18:03;98458.50;;;1.59;89.89
69971;BME280;57301;50.328;8.542;2023-02-22T00:20:30;98459.84;;;1.52;89.46
69971;BME280;57301;50.328;8.542;2023-02-22T00:22:57;98456.66;;;1.47;89.81
69971;BME280;57301;50.328;8.542;2023-02-22T00:25:26;98454.97;;;1.46;90.16
69971;BME280;57301;50.328;8.542;2023-02-22T00:27:53;98447.00;;;1.47;90.49
69971;BME280;57301;50.328;8.542;2023-02-22T00:30:24;98450.22;;;1.38;89.93
69971;BME280;57301;50.328;8.542;2023-02-22T00:32:53;98445.56;;;1.29;90.45
69971;BME280;57301;50.328;8.542;2023-02-22T00:35:23;98455.97;;;1.30;90.61
69971;BME280;57301;50.328;8.542;2023-02-22T00:37:53;98456.81;;;1.31;90.50
69971;BME280;57301;50.328;8.542;2023-02-22T00:40:27;98448.09;;;1.30;90.30
69971;BME280;57301;50.328;8.542;2023-02-22T00:42:57;98447.53;;;1.25;90.30
69971;BME280;57301;50.328;8.542;2023-02-22T00:45:26;98443.34;;;1.23;90.10
69971;BME280;57301;50.328;8.542;2023-02-22T00:47:53;98448.66;;;1.21;90.52
69971;BME280;57301;50.328;8.542;2023-02-22T00:50:24;98443.50;;;1.20;90.19
69971;BME280;57301;50.328;8.542;2023-02-22T00:52:52;98441.16;;;1.15;90.19
69971;BME280;57301;50.328;8.542;2023-02-22T00:55:30;98444.72;;;1.14;90.11
69971;BME280;57301;50.328;8.542;2023-02-22T00:57:57;98431.88;;;1.10;90.09
69971;BME280;57301;50.328;8.542;2023-02-22T01:00:30;98428.91;;;1.01;89.64
69971;BME280;57301;50.328;8.542;2023-02-22T01:02:57;98432.59;;;0.99;89.46
69971;BME280;57301;50.328;8.542;2023-02-22T01:05:26;98424.31;;;0.91;89.94
69971;BME280;57301;50.328;8.542;2023-02-22T01:07:55;98433.63;;;0.82;90.48
69971;BME280;57301;50.328;8.542;2023-02-22T01:10:24;98428.94;;;0.87;90.73
69971;BME280;57301;50.328;8.542;2023-02-22T01:12:51;98429.22;;;0.83;90.88
69971;BME280;57301;50.328;8.542;2023-02-22T01:15:19;98424.13;;;0.79;90.59
69971;BME280;57301;50.328;8.542;2023-02-22T01:17:50;98422.28;;;0.82;90.89
69971;BME280;57301;50.328;8.542;2023-02-22T01:20:20;98424.22;;;0.78;91.17
69971;BME280;57301;50.328;8.542;2023-02-22T01:22:52;98416.75;;;0.72;91.18
69971;BME280;57301;50.328;8.542;2023-02-22T01:25:22;98421.53;;;0.65;90.84
69971;BME280;57301;50.328;8.542;2023-02-22T01:27:49;98416.28;;;0.65;90.84
69971;BME280;57301;50.328;8.542;2023-02-22T01:30:20;98418.06;;;0.65;90.34
69971;BME280;57301;50.328;8.542;2023-02-22T01:32:47;98408.03;;;0.57;90.91
69971;BME280;57301;50.328;8.542;2023-02-22T01:35:15;98406.72;;;0.50;91.26
69971;BME280;57301;50.328;8.542;2023-02-22T01:37:44;98409.41;;;0.48;91.73
69971;BME280;57301;50.328;8.542;2023-02-22T01:40:18;98403.34;;;0.48;91.24
69971;BME280;57301;50.328;8.542;2023-02-22T01:42:53;98410.25;;;0.49;91.35
69971;BME280;57301;50.328;8.542;2023-02-22T01:48:03;98396.50;;;0.45;91.43
69971;BME280;57301;50.328;8.542;2023-02-22T01:50:32;98394.72;;;0.46;91.23
69971;BME280;57301;50.328;8.542;2023-02-22T01:53:01;98391.25;;;0.45;90.97
69971;BME280;57301;50.328;8.542;2023-02-22T01:55:29;98392.84;;;0.48;90.74
69971;BME280;57301;50.328;8.542;2023-02-22T01:57:57;98392.66;;;0.51;91.53
69971;BME280;57301;50.328;8.542;2023-02-22T02:00:24;98391.91;;;0.49;91.48
69971;BME280;57301;50.328;8.542;2023-02-22T02:03:01;98390.41;;;0.59;91.73
69971;BME280;57301;50.328;8.542;2023-02-22T02:05:33;98385.16;;;0.59;91.98
69971;BME280;57301;50.328;8.542;2023-02-22T02:08:09;98385.44;;;0.69;91.14
69971;BME280;57301;50.328;8.542;2023-02-22T02:10:40;98383.19;;;0.77;90.95
69971;BME280;57301;50.328;8.542;2023-02-22T02:13:08;98377.09;;;0.76;89.99
69971;BME280;57301;50.328;8.542;2023-02-22T02:15:35;98376.81;;;0.67;89.98
69971;BME280;57301;50.328;8.542;2023-02-22T02:18:08;98371.56;;;0.67;90.37
69971;BME280;57301;50.328;8.542;2023-02-22T02:20:52;98371.28;;;0.71;90.12
69971;BME280;57301;50.328;8.542;2023-02-22T02:34:34;98365.88;;;0.32;91.24
69971;BME280;57301;50.328;8.542;2023-02-22T02:37:26;98362.41;;;0.31;91.12
69971;BME280;57301;50.328;8.542;2023-02-22T02:42:48;98352.28;;;0.39;91.48
69971;BME280;57301;50.328;8.542;2023-02-22T02:45:22;98353.03;;;0.41;91.78
69971;BME280;57301;50.328;8.542;2023-02-22T02:47:54;98348.34;;;0.46;92.08
69971;BME280;57301;50.328;8.542;2023-02-22T02:50:29;98345.63;;;0.48;92.29
69971;BME280;57301;50.328;8.542;2023-02-22T02:53:00;98341.03;;;0.51;92.29
69971;BME280;57301;50.328;8.542;2023-02-22T02:55:30;98334.84;;;0.52;92.13
69971;BME280;57301;50.328;8.542;2023-02-22T02:57:57;98334.69;;;0.56;92.08
69971;BME280;57301;50.328;8.542;2023-02-22T03:00:30;98335.59;;;0.54;92.62
69971;BME280;57301;50.328;8.542;2023-02-22T03:06:11;98340.38;;;0.62;92.19
69971;BME280;57301;50.328;8.542;2023-02-22T03:11:55;98328.50;;;0.57;91.88
69971;BME280;57301;50.328;8.542;2023-02-22T03:14:40;98334.03;;;0.52;92.21
69971;BME280;57301;50.328;8.542;2023-02-22T03:17:40;98324.38;;;0.38;92.35
69971;BME280;57301;50.328;8.542;2023-02-22T03:20:17;98326.25;;;0.36;92.69
69971;BME280;57301;50.328;8.542;2023-02-22T03:23:17;98322.31;;;0.43;92.42
69971;BME280;57301;50.328;8.542;2023-02-22T03:25:57;98319.97;;;0.39;92.34
69971;BME280;57301;50.328;8.542;2023-02-22T03:28:27;98324.94;;;0.43;91.68
69971;BME280;57301;50.328;8.542;2023-02-22T03:31:25;98320.53;;;0.44;91.94
69971;BME280;57301;50.328;8.542;2023-02-22T03:33:56;98321.38;;;0.44;92.00
69971;BME280;57301;50.328;8.542;2023-02-22T03:36:32;98318.38;;;0.50;91.90
69971;BME280;57301;50.328;8.542;2023-02-22T03:39:06;98318.84;;;0.43;91.97
69971;BME280;57301;50.328;8.542;2023-02-22T03:41:37;98307.81;;;0.38;92.66
69971;BME280;57301;50.328;8.542;2023-02-22T03:44:07;98315.09;;;0.47;93.03
69971;BME280;57301;50.328;8.542;2023-02-22T03:46:35;98315.28;;;0.58;92.70
69971;BME280;57301;50.328;8.542;2023-02-22T03:49:10;98308.91;;;0.48;93.23
69971;BME280;57301;50.328;8.542;2023-02-22T03:51:38;98314.16;;;0.48;93.29
69971;BME280;57301;50.328;8.542;2023-02-22T03:54:05;98314.53;;;0.56;93.73
69971;BME280;57301;50.328;8.542;2023-02-22T03:56:38;98314.22;;;0.61;93.65
69971;BME280;57301;50.328;8.542;2023-02-22T03:59:12;98314.88;;;0.64;93.96
69971;BME280;57301;50.328;8.542;2023-02-22T04:01:39;98303.44;;;0.65;93.41
69971;BME280;57301;50.328;8.542;2023-02-22T04:04:06;98312.38;;;0.48;94.59
69971;BME280;57301;50.328;8.542;2023-02-22T04:06:33;98310.88;;;0.59;94.92
69971;BME280;57301;50.328;8.542;2023-02-22T04:09:02;98310.88;;;0.59;94.43
69971;BME280;57301;50.328;8.542;2023-02-22T04:11:28;98308.91;;;0.62;94.19
69971;BME280;57301;50.328;8.542;2023-02-22T04:13:55;98310.69;;;0.47;94.11
69971;BME280;57301;50.328;8.542;2023-02-22T04:16:22;98313.38;;;0.60;94.65
69971;BME280;57301;50.328;8.542;2023-02-22T04:18:48;98308.44;;;0.56;94.57
69971;BME280;57301;50.328;8.542;2023-02-22T04:21:15;98306.88;;;0.39;95.24
69971;BME280;57301;50.328;8.542;2023-02-22T04:23:42;98317.53;;;0.07;96.39
69971;BME280;57301;50.328;8.542;2023-02-22T04:26:08;98301.72;;;0.23;97.41
69971;BME280;57301;50.328;8.542;2023-02-22T04:28:35;98299.84;;;0.11;97.82
69971;BME280;57301;50.328;8.542;2023-02-22T04:31:01;98299.38;;;0.33;97.65
69971;BME280;57301;50.328;8.542;2023-02-22T04:33:27;98299.91;;;0.52;97.47
69971;BME280;57301;50.328;8.542;2023-02-22T04:35:54;98300.19;;;0.62;96.51
69971;BME280;57301;50.328;8.542;2023-02-22T04:38:23;98304.88;;;0.57;95.39
69971;BME280;57301;50.328;8.542;2023-02-22T04:40:52;98301.31;;;0.58;94.46
69971;BME280;57301;50.328;8.542;2023-02-22T04:43:19;98303.28;;;0.54;94.04
69971;BME280;57301;50.328;8.542;2023-02-22T04:45:45;98304.50;;;0.48;93.42
69971;BME280;57301;50.328;8.542;2023-02-22T04:48:12;98311.63;;;0.46;93.35
69971;BME280;57301;50.328;8.542;2023-02-22T04:50:38;98296.38;;;0.39;93.72
69971;BME280;57301;50.328;8.542;2023-02-22T04:53:05;98298.22;;;0.37;93.68
69971;BME280;57301;50.328;8.542;2023-02-22T04:55:32;98298.44;;;0.19;94.99
69971;BME280;57301;50.328;8.542;2023-02-22T04:57:59;98300.31;;;0.32;94.61
69971;BME280;57301;50.328;8.542;2023-02-22T05:00:26;98294.97;;;0.33;94.48
69971;BME280;57301;50.328;8.542;2023-02-22T05:02:52;98297.31;;;0.38;94.81
69971;BME280;57301;50.328;8.542;2023-02-22T05:05:20;98297.13;;;0.41;94.71
69971;BME280;57301;50.328;8.542;2023-02-22T05:07:48;98294.94;;;0.47;94.48
69971;BME280;57301;50.328;8.542;2023-02-22T05:10:15;98290.25;;;0.52;94.16
69971;BME280;57301;50.328;8.542;2023-02-22T05:12:41;98291.84;;;0.55;94.37
69971;BME280;57301;50.328;8.542;2023-02-22T05:15:08;98294.56;;;0.53;94.16
69971;BME280;57301;50.328;8.542;2023-02-22T05:17:35;98288.19;;;0.58;93.95
69971;BME280;57301;50.328;8.542;2023-02-22T05:20:03;98295.97;;;0.59;94.03
69971;BME280;57301;50.328;8.542;2023-02-22T05:22:29;98284.84;;;0.56;93.98
69971;BME280;57301;50.328;8.542;2023-02-22T05:24:56;98291.16;;;0.66;94.26
69971;BME280;57301;50.328;8.542;2023-02-22T05:27:22;98289.94;;;0.71;93.77
69971;BME280;57301;50.328;8.542;2023-02-22T05:29:49;98286.28;;;0.74;93.46
69971;BME280;57301;50.328;8.542;2023-02-22T05:32:15;98286.63;;;0.82;93.24
69971;BME280;57301;50.328;8.542;2023-02-22T05:34:42;98280.72;;;0.78;92.97
69971;BME280;57301;50.328;8.542;2023-02-22T05:37:08;98285.59;;;0.43;95.48
69971;BME280;57301;50.328;8.542;2023-02-22T05:39:35;98286.50;;;0.42;97.70
69971;BME280;57301;50.328;8.542;2023-02-22T05:42:02;98278.81;;;0.68;98.11
69971;BME280;57301;50.328;8.542;2023-02-22T05:44:28;98283.13;;;0.96;97.78
69971;BME280;57301;50.328;8.542;2023-02-22T05:46:56;98275.66;;;1.17;96.54
69971;BME280;57301;50.328;8.542;2023-02-22T05:49:22;98276.94;;;1.24;94.88
69971;BME280;57301;50.328;8.542;2023-02-22T05:51:49;98275.84;;;1.14;93.94
69971;BME280;57301;50.328;8.542;2023-02-22T05:54:15;98275.00;;;1.13;93.80
69971;BME280;57301;50.328;8.542;2023-02-22T05:56:42;98266.72;;;1.19;93.57
69971;BME280;57301;50.328;8.542;2023-02-22T05:59:08;98279.63;;;1.22;93.24
69971;BME280;57301;50.328;8.542;2023-02-22T06:01:35;98277.13;;;1.21;92.94
69971;BME280;57301;50.328;8.542;2023-02-22T06:04:01;98271.53;;;1.13;93.48
69971;BME280;57301;50.328;8.542;2023-02-22T06:06:28;98273.47;;;1.23;93.36
69971;BME280;57301;50.328;8.542;2023-02-22T06:08:55;98273.13;;;1.28;92.97
69971;BME280;57301;50.328;8.542;2023-02-22T06:11:21;98268.94;;;1.25;92.75
69971;BME280;57301;50.328;8.542;2023-02-22T06:13:49;98268.94;;;1.25;92.82
69971;BME280;57301;50.328;8.542;2023-02-22T06:16:17;98270.41;;;1.17;93.42
69971;BME280;57301;50.328;8.542;2023-02-22T06:18:43;98273.53;;;1.22;93.58
69971;BME280;57301;50.328;8.542;2023-02-22T06:21:10;98277.53;;;1.27;94.08
69971;BME280;57301;50.328;8.542;2023-02-22T06:23:37;98269.91;;;1.37;94.51
69971;BME280;57301;50.328;8.542;2023-02-22T06:26:04;98270.53;;;1.41;94.31
69971;BME280;57301;50.328;8.542;2023-02-22T06:28:30;98270.34;;;1.44;94.71
69971;BME280;57301;50.328;8.542;2023-02-22T06:30:57;98271.91;;;1.46;94.48
69971;BME280;57301;50.328;8.542;2023-02-22T06:33:23;98276.13;;;1.49;94.61
69971;BME280;57301;50.328;8.542;2023-02-22T06:35:50;98275.31;;;1.48;94.72
69971;BME280;57301;50.328;8.542;2023-02-22T06:38:20;98271.63;;;1.51;94.78
69971;BME280;57301;50.328;8.542;2023-02-22T06:40:47;98271.50;;;1.52;94.85
69971;BME280;57301;50.328;8.542;2023-02-22T06:43:13;98279.09;;;1.57;94.48
69971;BME280;57301;50.328;8.542;2023-02-22T06:45:40;98280.88;;;1.56;94.98
69971;BME280;57301;50.328;8.542;2023-02-22T06:48:06;98286.38;;;1.66;94.98
69971;BME280;57301;50.328;8.542;2023-02-22T06:50:34;98289.31;;;1.74;94.93
69971;BME280;57301;50.328;8.542;2023-02-22T06:53:01;98289.19;;;1.76;94.82
69971;BME280;57301;50.328;8.542;2023-02-22T06:55:30;98285.84;;;1.86;94.60
69971;BME280;57301;50.328;8.542;2023-02-22T06:57:57;98288.78;;;1.95;94.41
69971;BME280;57301;50.328;8.542;2023-02-22T07:00:25;98284.59;;;1.92;94.00
69971;BME280;57301;50.328;8.542;2023-02-22T07:02:53;98286.47;;;1.90;93.99
69971;BME280;57301;50.328;8.542;2023-02-22T07:05:21;98284.16;;;1.98;93.96
69971;BME280;57301;50.328;8.542;2023-02-22T07:07:50;98286.50;;;2.03;93.99
69971;BME280;57301;50.328;8.542;2023-02-22T07:10:19;98293.22;;;2.07;94.06
69971;BME280;57301;50.328;8.542;2023-02-22T07:12:46;98289.72;;;2.19;93.93
69971;BME280;57301;50.328;8.542;2023-02-22T07:15:16;98294.56;;;2.25;93.52
69971;BME280;57301;50.328;8.542;2023-02-22T07:17:44;98299.41;;;2.31;92.94
69971;BME280;57301;50.328;8.542;2023-02-22T07:20:14;98291.94;;;2.25;93.38
69971;BME280;57301;50.328;8.542;2023-02-22T07:22:40;98301.41;;;2.28;93.83
69971;BME280;57301;50.328;8.542;2023-02-22T07:25:08;98297.69;;;2.43;93.42
69971;BME280;57301;50.328;8.542;2023-02-22T07:27:39;98292.72;;;2.51;92.94
69971;BME280;57301;50.328;8.542;2023-02-22T07:30:14;98297.59;;;2.45;91.96
69971;BME280;57301;50.328;8.542;2023-02-22T07:32:43;98297.56;;;2.57;92.49
69971;BME280;57301;50.328;8.542;2023-02-22T07:35:21;98294.25;;;2.79;92.42
69971;BME280;57301;50.328;8.542;2023-02-22T07:37:48;98292.91;;;2.97;91.71
69971;BME280;57301;50.328;8.542;2023-02-22T07:40:16;98299.81;;;3.11;91.21
69971;BME280;57301;50.328;8.542;2023-02-22T07:43:00;98299.81;;;3.35;90.96
69971;BME280;57301;50.328;8.542;2023-02-22T07:45:33;98296.50;;;3.44;90.53
69971;BME280;57301;50.328;8.542;2023-02-22T07:48:01;98292.97;;;3.57;89.67
69971;BME280;57301;50.328;8.542;2023-02-22T07:50:30;98293.13;;;3.77;88.66
69971;BME280;57301;50.328;8.542;2023-02-22T07:53:01;98293.06;;;4.01;88.41
69971;BME280;57301;50.328;8.542;2023-02-22T07:55:30;98288.75;;;4.12;87.55
69971;BME280;57301;50.328;8.542;2023-02-22T07:58:00;98293.81;;;4.37;86.65
69971;BME280;57301;50.328;8.542;2023-02-22T08:00:29;98296.47;;;4.48;86.51
69971;BME280;57301;50.328;8.542;2023-02-22T08:02:56;98291.28;;;4.58;86.03
69971;BME280;57301;50.328;8.542;2023-02-22T08:05:25;98297.66;;;4.67;85.68
69971;BME280;57301;50.328;8.542;2023-02-22T08:07:51;98303.16;;;4.86;86.60
69971;BME280;57301;50.328;8.542;2023-02-22T08:10:20;98295.78;;;5.01;84.67
69971;BME280;57301;50.328;8.542;2023-02-22T08:12:48;98300.44;;;5.08;84.98
69971;BME280;57301;50.328;8.542;2023-02-22T08:15:19;98295.94;;;5.31;85.04
69971;BME280;57301;50.328;8.542;2023-02-22T08:17:47;98290.47;;;5.44;85.31
69971;BME280;57301;50.328;8.542;2023-02-22T08:20:13;98290.38;;;5.66;85.25
69971;BME280;57301;50.328;8.542;2023-02-22T08:22:43;98291.47;;;5.96;85.12
69971;BME280;57301;50.328;8.542;2023-02-22T08:25:10;98291.88;;;6.22;83.67
69971;BME280;57301;50.328;8.542;2023-02-22T08:27:37;98288.00;;;6.26;83.46
69971;BME280;57301;50.328;8.542;2023-02-22T08:30:04;98288.69;;;6.59;82.39
69971;BME280;57301;50.328;8.542;2023-02-22T08:32:31;98289.53;;;6.59;80.87
69971;BME280;57301;50.328;8.542;2023-02-22T08:34:58;98284.63;;;6.55;80.70
69971;BME280;57301;50.328;8.542;2023-02-22T08:37:24;98288.63;;;6.39;82.21
69971;BME280;57301;50.328;8.542;2023-02-22T08:39:52;98284.41;;;6.37;83.79
69971;BME280;57301;50.328;8.542;2023-02-22T08:42:19;98282.75;;;6.36;82.63
69971;BME280;57301;50.328;8.542;2023-02-22T08:44:45;98273.56;;;6.40;82.71
69971;BME280;57301;50.328;8.542;2023-02-22T08:47:12;98280.16;;;6.45;83.54
69971;BME280;57301;50.328;8.542;2023-02-22T08:49:39;98278.53;;;6.64;82.95
69971;BME280;57301;50.328;8.542;2023-02-22T08:52:05;98271.34;;;6.76;82.52
69971;BME280;57301;50.328;8.542;2023-02-22T08:54:31;98275.72;;;7.15;82.93
69971;BME280;57301;50.328;8.542;2023-02-22T08:56:58;98272.13;;;7.55;81.64
69971;BME280;57301;50.328;8.542;2023-02-22T08:59:24;98268.28;;;8.06;78.71
69971;BME280;57301;50.328;8.542;2023-02-22T09:01:51;98268.91;;;8.27;77.00
69971;BME280;57301;50.328;8.542;2023-02-22T09:04:17;98271.50;;;7.90;77.88
69971;BME280;57301;50.328;8.542;2023-02-22T09:06:44;98265.31;;;8.09;79.16
69971;BME280;57301;50.328;8.542;2023-02-22T09:09:18;98265.25;;;8.28;78.66
69971;BME280;57301;50.328;8.542;2023-02-22T09:11:47;98268.31;;;8.33;79.71
69971;BME280;57301;50.328;8.542;2023-02-22T09:14:16;98260.44;;;8.61;78.52
69971;BME280;57301;50.328;8.542;2023-02-22T09:16:43;98261.31;;;8.79;77.93
69971;BME280;57301;50.328;8.542;2023-02-22T09:19:11;98258.75;;;8.87;79.12
69971;BME280;57301;50.328;8.542;2023-02-22T09:21:37;98249.28;;;9.21;77.60
69971;BME280;57301;50.328;8.542;2023-02-22T09:24:06;98249.91;;;9.32;76.75
69971;BME280;57301;50.328;8.542;2023-02-22T09:26:37;98241.31;;;9.38;77.42
69971;BME280;57301;50.328;8.542;2023-02-22T09:29:05;98243.44;;;9.53;76.76
69971;BME280;57301;50.328;8.542;2023-02-22T09:31:36;98237.00;;;9.81;76.91
69971;BME280;57301;50.328;8.542;2023-02-22T09:34:04;98234.94;;;9.93;76.60
69971;BME280;57301;50.328;8.542;2023-02-22T09:36:40;98234.41;;;10.15;75.76
69971;BME280;57301;50.328;8.542;2023-02-22T09:39:07;98236.69;;;10.62;75.00
69971;BME280;57301;50.328;8.542;2023-02-22T09:44:15;98231.22;;;11.39;71.71
69971;BME280;57301;50.328;8.542;2023-02-22T09:46:46;98234.56;;;11.57;71.31
69971;BME280;57301;50.328;8.542;2023-02-22T09:52:04;98224.56;;;11.67;71.63
69971;BME280;57301;50.328;8.542;2023-02-22T09:54:39;98227.41;;;11.74;70.75
69971;BME280;57301;50.328;8.542;2023-02-22T09:57:15;98212.53;;;11.96;70.89
69971;BME280;57301;50.328;8.542;2023-02-22T09:59:50;98218.88;;;12.11;70.43
69971;BME280;57301;50.328;8.542;2023-02-22T10:02:37;98212.25;;;12.38;70.65
69971;BME280;57301;50.328;8.542;2023-02-22T10:05:12;98211.97;;;13.03;67.96
69971;BME280;57301;50.328;8.542;2023-02-22T10:07:48;98205.69;;;13.27;67.50
69971;BME280;57301;50.328;8.542;2023-02-22T10:10:18;98203.66;;;13.52;67.63
69971;BME280;57301;50.328;8.542;2023-02-22T10:12:55;98208.53;;;13.86;66.06
69971;BME280;57301;50.328;8.542;2023-02-22T10:15:41;98206.88;;;13.85;65.03
69971;BME280;57301;50.328;8.542;2023-02-22T10:21:31;98204.72;;;14.48;63.63
69971;BME280;57301;50.328;8.542;2023-02-22T10:27:18;98196.81;;;16.88;56.92
69971;BME280;57301;50.328;8.542;2023-02-22T10:29:49;98192.41;;;18.15;53.39
69971;BME280;57301;50.328;8.542;2023-02-22T10:32:28;98197.63;;;18.94;49.37
69971;BME280;57301;50.328;8.542;2023-02-22T10:34:57;98197.00;;;18.99;49.53
69971;BME280;57301;50.328;8.542;2023-02-22T10:37:31;98197.00;;;18.99;49.38
69971;BME280;57301;50.328;8.542;2023-02-22T10:40:12;98201.47;;;18.53;51.27
69971;BME280;57301;50.328;8.542;2023-02-22T10:42:39;98189.13;;;17.99;51.12
69971;BME280;57301;50.328;8.542;2023-02-22T10:45:18;98196.31;;;18.45;51.70
69971;BME280;57301;50.328;8.542;2023-02-22T10:47:46;98197.34;;;19.16;48.40
69971;BME280;57301;50.328;8.542;2023-02-22T10:50:13;98199.78;;;19.24;48.63
69971;BME280;57301;50.328;8.542;2023-02-22T10:52:40;98195.72;;;19.46;47.07
69971;BME280;57301;50.328;8.542;2023-02-22T10:55:13;98195.22;;;19.24;48.82
69971;BME280;57301;50.328;8.542;2023-02-22T10:57:43;98180.50;;;19.83;47.10
69971;BME280;57301;50.328;8.542;2023-02-22T11:00:19;98181.16;;;20.22;44.79
69971;BME280;57301;50.328;8.542;2023-02-22T11:02:55;98190.63;;;20.13;44.04
69971;BME280;57301;50.328;8.542;2023-02-22T11:10:40;98179.94;;;18.27;46.79
69971;BME280;57301;50.328;8.542;2023-02-22T11:16:26;98170.78;;;18.41;47.56
69971;BME280;57301;50.328;8.542;2023-02-22T11:19:02;98166.06;;;17.64;48.22
69971;BME280;57301;50.328;8.542;2023-02-22T11:21:32;98164.50;;;16.19;51.89
69971;BME280;57301;50.328;8.542;2023-02-22T11:24:07;98159.72;;;16.97;53.18
69971;BME280;57301;50.328;8.542;2023-02-22T11:26:46;98159.41;;;17.33;50.92
69971;BME280;57301;50.328;8.542;2023-02-22T11:29:26;98155.50;;;17.56;47.92
69971;BME280;57301;50.328;8.542;2023-02-22T11:31:58;98149.78;;;16.50;50.54
69971;BME280;57301;50.328;8.542;2023-02-22T11:34:38;98146.50;;;17.15;50.81
69971;BME280;57301;50.328;8.542;2023-02-22T11:37:32;98148.59;;;18.33;47.14
69971;BME280;57301;50.328;8.542;2023-02-22T11:42:30;98135.56;;;18.81;46.06
69971;BME280;57301;50.328;8.542;2023-02-22T11:45:14;98133.13;;;17.82;47.74
69971;BME280;57301;50.328;8.542;2023-02-22T11:59:14;98120.22;;;17.64;46.05
69971;BME280;57301;50.328;8.542;2023-02-22T12:02:03;98110.47;;;17.43;48.04
69971;BME280;57301;50.328;8.542;2023-02-22T12:13:21;98111.19;;;16.29;49.58
69971;BME280;57301;50.328;8.542;2023-02-22T12:19:14;98111.09;;;17.65;47.38
69971;BME280;57301;50.328;8.542;2023-02-22T12:21:48;98108.59;;;17.24;48.05
69971;BME280;57301;50.328;8.542;2023-02-22T12:24:21;98111.03;;;16.92;49.34
69971;BME280;57301;50.328;8.542;2023-02-22T12:31:57;98107.16;;;17.41;48.07
69971;BME280;57301;50.328;8.542;2023-02-22T12:39:55;98102.34;;;18.03;47.08
69971;BME280;57301;50.328;8.542;2023-02-22T12:45:03;98093.53;;;18.40;45.57
69971;BME280;57301;50.328;8.542;2023-02-22T12:47:44;98097.25;;;18.46;45.66
69971;BME280;57301;50.328;8.542;2023-02-22T12:50:21;98093.22;;;18.04;46.88
69971;BME280;57301;50.328;8.542;2023-02-22T12:52:56;98085.69;;;18.25;45.98
69971;BME280;57301;50.328;8.542;2023-02-22T12:55:34;98094.06;;;17.97;47.25
69971;BME280;57301;50.328;8.542;2023-02-22T12:58:16;98089.09;;;17.15;47.89
69971;BME280;57301;50.328;8.542;2023-02-22T13:01:02;98085.16;;;17.11;48.56
69971;BME280;57301;50.328;8.542;2023-02-22T13:03:35;98095.09;;;17.10;49.76
69971;BME280;57301;50.328;8.542;2023-02-22T13:09:09;98086.78;;;16.92;49.85
69971;BME280;57301;50.328;8.542;2023-02-22T13:12:13;98084.09;;;16.92;50.08
69971;BME280;57301;50.328;8.542;2023-02-22T13:15:03;98083.72;;;17.28;49.35
69971;BME280;57301;50.328;8.542;2023-02-22T13:20:26;98074.78;;;16.33;50.30
69971;BME280;57301;50.328;8.542;2023-02-22T13:26:01;98069.16;;;16.76;50.32
69971;BME280;57301;50.328;8.542;2023-02-22T13:28:43;98071.06;;;16.41;51.62
69971;BME280;57301;50.328;8.542;2023-02-22T13:31:16;98068.44;;;16.06;50.53
69971;BME280;57301;50.328;8.542;2023-02-22T13:42:32;98057.88;;;16.05;51.15
69971;BME280;57301;50.328;8.542;2023-02-22T13:48:01;98054.34;;;16.52;49.53
69971;BME280;57301;50.328;8.542;2023-02-22T13:50:54;98053.25;;;16.33;49.61
69971;BME280;57301;50.328;8.542;2023-02-22T13:53:51;98051.88;;;16.03;50.00
69971;BME280;57301;50.328;8.542;2023-02-22T13:56:22;98056.47;;;16.16;50.08
69971;BME280;57301;50.328;8.542;2023-02-22T14:01:46;98050.59;;;15.64;51.11
69971;BME280;57301;50.328;8.542;2023-02-22T14:06:53;98050.25;;;14.75;53.39
69971;BME280;57301;50.328;8.542;2023-02-22T14:18:02;98038.56;;;16.36;47.60
69971;BME280;57301;50.328;8.542;2023-02-22T14:20:36;98032.91;;;15.83;48.73
69971;BME280;57301;50.328;8.542;2023-02-22T14:25:51;98045.59;;;14.62;53.03
69971;BME280;57301;50.328;8.542;2023-02-22T14:31:17;98038.25;;;14.20;54.00
69971;BME280;57301;50.328;8.542;2023-02-22T14:34:06;98034.13;;;14.54;52.91
69971;BME280;57301;50.328;8.542;2023-02-22T14:39:30;98033.25;;;14.68;53.12
69971;BME280;57301;50.328;8.542;2023-02-22T14:42:13;98029.81;;;14.38;53.63
69971;BME280;57301;50.328;8.542;2023-02-22T14:45:21;98036.81;;;14.39;52.63
69971;BME280;57301;50.328;8.542;2023-02-22T14:48:34;98030.38;;;13.15;55.86
69971;BME280;57301;50.328;8.542;2023-02-22T14:51:20;98022.59;;;13.73;54.76
69971;BME280;57301;50.328;8.542;2023-02-22T14:53:56;98030.06;;;13.92;54.03
69971;BME280;57301;50.328;8.542;2023-02-22T14:56:35;98027.41;;;13.10;56.21
69971;BME280;57301;50.328;8.542;2023-02-22T14:59:16;98021.72;;;12.67;57.67
69971;BME280;57301;50.328;8.542;2023-02-22T15:01:46;98025.72;;;12.71;58.16
69971;BME280;57301;50.328;8.542;2023-02-22T15:04:36;98020.16;;;12.50;58.77
69971;BME280;57301;50.328;8.542;2023-02-22T15:07:26;98031.59;;;12.89;58.08
69971;BME280;57301;50.328;8.542;2023-02-22T15:10:17;98030.78;;;13.04;57.41
69971;BME280;57301;50.328;8.542;2023-02-22T15:12:55;98028.28;;;12.64;59.21
69971;BME280;57301;50.328;8.542;2023-02-22T15:18:15;98024.06;;;12.39;60.76
69971;BME280;57301;50.328;8.542;2023-02-22T15:20:52;98032.06;;;12.70;60.07
69971;BME280;57301;50.328;8.542;2023-02-22T15:23:29;98036.03;;;12.74;60.27
69971;BME280;57301;50.328;8.542;2023-02-22T15:26:04;98038.53;;;12.76;60.05
69971;BME280;57301;50.328;8.542;2023-02-22T15:28:31;98038.25;;;12.71;60.38
69971;BME280;57301;50.328;8.542;2023-02-22T15:31:14;98032.94;;;12.40;61.87
69971;BME280;57301;50.328;8.542;2023-02-22T15:33:45;98035.03;;;12.52;61.50
69971;BME280;57301;50.328;8.542;2023-02-22T15:36:14;98034.44;;;12.42;61.91
69971;BME280;57301;50.328;8.542;2023-02-22T15:38:46;98026.28;;;12.35;62.67